Aviation Digital Data Service (ADDS)

Output produced by METARs form (2219 UTC 01 October 2014)
found at http://www.aviationweather.gov/adds/metars/
 
KJFK 011931Z 0120/0224 03013KT P6SM OVC015 
     FM020100 01012KT P6SM OVC012 
     FM021600 36014G20KT 6SM -RA OVC020